Aviation Digital Data Service (ADDS)

Output produced by METARs form (0817 UTC 28 July 2014)
found at http://www.aviationweather.gov/adds/metars/
 
KESN 280820Z AUTO 00000KT 10SM SCT065 SCT075 BKN095 26/26 A2962 RMK AO2 T02580258